createdAt,value
2018-08-24T00:00:17.803Z,23.71
2018-08-24T00:01:17.725Z,23.72
2018-08-24T00:02:17.825Z,23.73
2018-08-24T00:03:17.734Z,23.7
2018-08-24T00:04:17.668Z,23.7
2018-08-24T00:05:17.650Z,23.73
2018-08-24T00:06:17.694Z,23.72
2018-08-24T00:07:18.044Z,23.72
2018-08-24T00:08:17.883Z,23.73
2018-08-24T00:09:17.771Z,23.73
2018-08-24T00:10:17.693Z,23.71
2018-08-24T00:11:17.641Z,23.72
2018-08-24T00:12:17.750Z,23.72
2018-08-24T00:13:17.903Z,23.72
2018-08-24T00:14:17.686Z,23.7
2018-08-24T00:15:17.744Z,23.72
2018-08-24T00:16:17.629Z,23.7
2018-08-24T00:17:17.743Z,23.72
2018-08-24T00:18:17.729Z,23.72
2018-08-24T00:19:17.785Z,23.72
2018-08-24T00:20:17.800Z,23.73
2018-08-24T00:21:17.864Z,23.7
2018-08-24T00:22:17.642Z,23.72
2018-08-24T00:23:17.979Z,23.73
2018-08-24T00:24:17.692Z,23.72
2018-08-24T00:25:17.711Z,23.7
2018-08-24T00:26:17.880Z,23.69
2018-08-24T00:27:17.964Z,23.69
2018-08-24T00:28:17.624Z,23.7
2018-08-24T00:29:17.803Z,23.69
2018-08-24T00:30:17.841Z,23.71
2018-08-24T00:31:17.865Z,23.69
2018-08-24T00:32:17.632Z,23.69
2018-08-24T00:33:17.740Z,23.69
2018-08-24T00:34:17.880Z,23.71
2018-08-24T00:35:17.760Z,23.71
2018-08-24T00:36:17.756Z,23.71
2018-08-24T00:37:17.737Z,23.72
2018-08-24T00:38:17.733Z,23.72
2018-08-24T00:39:17.920Z,23.71
2018-08-24T00:40:17.599Z,23.7
2018-08-24T00:41:17.732Z,23.69
2018-08-24T00:42:17.657Z,23.73
2018-08-24T00:43:17.813Z,23.69
2018-08-24T00:44:18.056Z,23.72
2018-08-24T00:45:17.816Z,23.71
2018-08-24T00:46:17.844Z,23.7
2018-08-24T00:47:17.656Z,23.71
2018-08-24T00:48:17.670Z,23.72
2018-08-24T00:49:18.160Z,23.72
2018-08-24T00:50:17.683Z,23.72
2018-08-24T00:51:17.775Z,23.7
2018-08-24T00:52:17.800Z,23.7
2018-08-24T00:53:17.717Z,23.7
2018-08-24T00:54:17.738Z,23.69
2018-08-24T00:55:17.877Z,23.68
2018-08-24T00:56:17.639Z,23.69
2018-08-24T00:57:17.636Z,23.69
2018-08-24T00:58:18.047Z,23.67
2018-08-24T00:59:17.816Z,23.68
2018-08-24T01:00:17.756Z,23.7
2018-08-24T01:01:17.716Z,23.68
2018-08-24T01:02:17.876Z,23.69
2018-08-24T01:03:18.033Z,23.69
2018-08-24T01:04:17.797Z,23.7
2018-08-24T01:05:17.714Z,23.67
2018-08-24T01:06:17.889Z,23.68
2018-08-24T01:07:17.545Z,23.69
2018-08-24T01:08:17.599Z,23.69
2018-08-24T01:09:17.657Z,23.68
2018-08-24T01:10:17.714Z,23.69
2018-08-24T01:11:17.848Z,23.68
2018-08-24T01:12:17.541Z,23.69
2018-08-24T01:13:17.750Z,23.69
2018-08-24T01:14:17.779Z,23.69
2018-08-24T01:15:17.771Z,23.69
2018-08-24T01:16:17.696Z,23.69
2018-08-24T01:17:17.640Z,23.69
2018-08-24T01:18:17.748Z,23.7
2018-08-24T01:19:17.728Z,23.67
2018-08-24T01:20:17.932Z,23.69
2018-08-24T01:21:17.664Z,23.7
2018-08-24T01:22:17.781Z,23.68
2018-08-24T01:23:17.710Z,23.68
2018-08-24T01:24:17.844Z,23.69
2018-08-24T01:25:17.873Z,23.68
2018-08-24T01:26:17.777Z,23.68
2018-08-24T01:27:17.736Z,23.68
2018-08-24T01:28:18.100Z,23.68
2018-08-24T01:29:17.588Z,23.68
2018-08-24T01:30:17.654Z,23.69
2018-08-24T01:31:17.693Z,23.68
2018-08-24T01:32:17.684Z,23.67
2018-08-24T01:33:17.773Z,23.68
2018-08-24T01:34:18.024Z,23.67
2018-08-24T01:35:17.775Z,23.68
2018-08-24T01:36:17.586Z,23.69
2018-08-24T01:37:17.617Z,23.68
2018-08-24T01:38:17.669Z,23.68
2018-08-24T01:39:17.559Z,23.68
2018-08-24T01:40:17.695Z,23.67
2018-08-24T01:41:17.816Z,23.7
2018-08-24T01:42:17.683Z,23.66
2018-08-24T01:43:17.789Z,23.69
2018-08-24T01:44:18.216Z,23.68
2018-08-24T01:45:17.794Z,23.68
2018-08-24T01:46:17.897Z,23.68
2018-08-24T01:47:17.557Z,23.68
2018-08-24T01:48:17.880Z,23.69
2018-08-24T01:49:17.812Z,23.68
2018-08-24T01:50:17.787Z,23.68
2018-08-24T01:51:17.723Z,23.69
2018-08-24T01:52:17.764Z,23.69
2018-08-24T01:53:17.761Z,23.69
2018-08-24T01:54:17.665Z,23.68
2018-08-24T01:55:17.763Z,23.65
2018-08-24T01:56:17.845Z,23.66
2018-08-24T01:57:17.819Z,23.67
2018-08-24T01:58:17.823Z,23.67
2018-08-24T01:59:17.854Z,23.69
2018-08-24T02:00:17.844Z,23.68
2018-08-24T02:01:18.135Z,23.66
2018-08-24T02:02:17.725Z,23.66
2018-08-24T02:03:17.681Z,23.68
2018-08-24T02:04:17.696Z,23.66
2018-08-24T02:05:17.673Z,23.68
2018-08-24T02:06:17.797Z,23.69
2018-08-24T02:07:17.981Z,23.66
2018-08-24T02:08:17.713Z,23.68
2018-08-24T02:09:17.526Z,23.68
2018-08-24T02:10:17.607Z,23.68
2018-08-24T02:11:17.865Z,23.66
2018-08-24T02:12:17.754Z,23.66
2018-08-24T02:13:18.043Z,23.65
2018-08-24T02:14:18.130Z,23.68
2018-08-24T02:15:17.827Z,23.66
2018-08-24T02:16:17.664Z,23.66
2018-08-24T02:17:18.124Z,23.67
2018-08-24T02:18:17.912Z,23.69
2018-08-24T02:19:17.681Z,23.68
2018-08-24T02:20:17.679Z,23.67
2018-08-24T02:21:17.817Z,23.68
2018-08-24T02:22:17.747Z,23.67
2018-08-24T02:23:18.095Z,23.66
2018-08-24T02:24:17.648Z,23.67
2018-08-24T02:25:17.690Z,23.67
2018-08-24T02:26:17.603Z,23.66
2018-08-24T02:27:17.651Z,23.65
2018-08-24T02:28:17.787Z,23.66
2018-08-24T02:29:17.528Z,23.66
2018-08-24T02:30:17.718Z,23.66
2018-08-24T02:31:18.427Z,23.66
2018-08-24T02:32:17.867Z,23.66
2018-08-24T02:33:17.714Z,23.67
2018-08-24T02:34:18.013Z,23.66
2018-08-24T02:35:17.802Z,23.66
2018-08-24T02:36:18.082Z,23.65
2018-08-24T02:37:17.830Z,23.66
2018-08-24T02:38:17.697Z,23.66
2018-08-24T02:39:17.572Z,23.66
2018-08-24T02:40:17.769Z,23.64
2018-08-24T02:41:17.695Z,23.64
2018-08-24T02:42:18.058Z,23.67
2018-08-24T02:43:17.795Z,23.66
2018-08-24T02:44:17.695Z,23.67
2018-08-24T02:45:17.729Z,23.66
2018-08-24T02:46:17.899Z,23.65
2018-08-24T02:47:17.685Z,23.65
2018-08-24T02:48:17.788Z,23.66
2018-08-24T02:49:17.751Z,23.66
2018-08-24T02:50:17.692Z,23.64
2018-08-24T02:51:17.616Z,23.65
2018-08-24T02:52:17.750Z,23.66
2018-08-24T02:53:17.595Z,23.66
2018-08-24T02:54:17.661Z,23.65
2018-08-24T02:55:17.579Z,23.66
2018-08-24T02:56:17.879Z,23.65
2018-08-24T02:57:17.706Z,23.64
2018-08-24T02:58:17.717Z,23.64
2018-08-24T02:59:17.795Z,23.66
2018-08-24T03:00:17.667Z,23.67
2018-08-24T03:01:17.665Z,23.64
2018-08-24T03:02:17.754Z,23.65
2018-08-24T03:03:17.965Z,23.67
2018-08-24T03:04:17.767Z,23.62
2018-08-24T03:05:18.736Z,23.66
2018-08-24T03:06:17.647Z,23.66
2018-08-24T03:07:17.810Z,23.64
2018-08-24T03:08:18.145Z,23.65
2018-08-24T03:09:17.613Z,23.65
2018-08-24T03:10:17.617Z,23.65
2018-08-24T03:11:17.959Z,23.67
2018-08-24T03:12:17.679Z,23.64
2018-08-24T03:13:17.582Z,23.66
2018-08-24T03:14:17.964Z,23.66
2018-08-24T03:15:17.797Z,23.65
2018-08-24T03:16:17.935Z,23.66
2018-08-24T03:17:17.699Z,23.66
2018-08-24T03:18:17.689Z,23.64
2018-08-24T03:19:17.818Z,23.65
2018-08-24T03:20:17.967Z,23.66
2018-08-24T03:21:17.768Z,23.64
2018-08-24T03:22:17.734Z,23.62
2018-08-24T03:23:17.641Z,23.65
2018-08-24T03:24:17.801Z,23.65
2018-08-24T03:25:17.823Z,23.65
2018-08-24T03:26:17.710Z,23.65
2018-08-24T03:27:17.720Z,23.65
2018-08-24T03:28:17.533Z,23.62
2018-08-24T03:29:17.776Z,23.65
2018-08-24T03:30:17.652Z,23.64
2018-08-24T03:31:17.660Z,23.64
2018-08-24T03:32:18.204Z,23.64
2018-08-24T03:33:17.854Z,23.64
2018-08-24T03:34:17.672Z,23.65
2018-08-24T03:35:17.744Z,23.65
2018-08-24T03:36:17.661Z,23.66
2018-08-24T03:37:17.558Z,23.64
2018-08-24T03:38:17.689Z,23.65
2018-08-24T03:39:17.759Z,23.65
2018-08-24T03:40:17.753Z,23.62
2018-08-24T03:41:17.552Z,23.64
2018-08-24T03:42:17.719Z,23.66
2018-08-24T03:43:17.694Z,23.64
2018-08-24T03:44:17.751Z,23.64
2018-08-24T03:45:17.705Z,23.61
2018-08-24T03:46:17.641Z,23.64
2018-08-24T03:47:17.775Z,23.64
2018-08-24T03:48:17.681Z,23.62
2018-08-24T03:49:17.599Z,23.62
2018-08-24T03:50:17.770Z,23.61
2018-08-24T03:51:17.849Z,23.64
2018-08-24T03:52:17.617Z,23.64
2018-08-24T03:53:18.290Z,23.62
2018-08-24T03:54:17.720Z,23.61
2018-08-24T03:55:17.821Z,23.62
2018-08-24T03:56:17.870Z,23.64
2018-08-24T03:57:17.690Z,23.64
2018-08-24T03:58:17.671Z,23.61
2018-08-24T03:59:17.883Z,23.6
2018-08-24T04:00:17.696Z,23.64
2018-08-24T04:01:17.769Z,23.64
2018-08-24T04:02:17.848Z,23.64
2018-08-24T04:03:17.673Z,23.62
2018-08-24T04:04:17.712Z,23.61
2018-08-24T04:05:17.693Z,23.62
2018-08-24T04:06:17.707Z,23.64
2018-08-24T04:07:17.725Z,23.64
2018-08-24T04:08:17.647Z,23.64
2018-08-24T04:09:17.748Z,23.62
2018-08-24T04:10:17.701Z,23.62
2018-08-24T04:11:17.646Z,23.64
2018-08-24T04:12:17.661Z,23.62
2018-08-24T04:13:17.591Z,23.62
2018-08-24T04:14:17.500Z,23.64
2018-08-24T04:15:17.580Z,23.61
2018-08-24T04:16:17.670Z,23.64
2018-08-24T04:17:17.592Z,23.62
2018-08-24T04:18:17.582Z,23.6
2018-08-24T04:19:18.072Z,23.61
2018-08-24T04:20:18.062Z,23.62
2018-08-24T04:21:17.683Z,23.64
2018-08-24T04:22:17.678Z,23.62
2018-08-24T04:23:17.741Z,23.61
2018-08-24T04:24:17.656Z,23.6
2018-08-24T04:25:17.473Z,23.64
2018-08-24T04:26:17.654Z,23.61
2018-08-24T04:27:17.651Z,23.62
2018-08-24T04:28:17.743Z,23.62
2018-08-24T04:29:17.704Z,23.59
2018-08-24T04:30:17.496Z,23.64
2018-08-24T04:31:17.819Z,23.62
2018-08-24T04:32:17.821Z,23.6
2018-08-24T04:33:17.889Z,23.62
2018-08-24T04:34:17.737Z,23.6
2018-08-24T04:35:17.767Z,23.61
2018-08-24T04:36:17.617Z,23.62
2018-08-24T04:37:17.578Z,23.61
2018-08-24T04:38:17.692Z,23.62
2018-08-24T04:39:17.770Z,23.64
2018-08-24T04:40:18.456Z,23.64
2018-08-24T04:41:17.669Z,23.64
2018-08-24T04:42:17.771Z,23.64
2018-08-24T04:43:17.712Z,23.62
2018-08-24T04:44:17.962Z,23.61
2018-08-24T04:45:17.763Z,23.64
2018-08-24T04:46:17.648Z,23.61
2018-08-24T04:47:17.542Z,23.62
2018-08-24T04:48:17.640Z,23.61
2018-08-24T04:49:17.664Z,23.61
2018-08-24T04:50:18.105Z,23.61
2018-08-24T04:51:18.043Z,23.62
2018-08-24T04:52:17.799Z,23.6
2018-08-24T04:53:17.594Z,23.64
2018-08-24T04:54:17.860Z,23.61
2018-08-24T04:55:17.632Z,23.61
2018-08-24T04:56:17.798Z,23.62
2018-08-24T04:57:17.846Z,23.62
2018-08-24T04:58:18.202Z,23.6
2018-08-24T04:59:17.733Z,23.6
2018-08-24T05:00:17.822Z,23.64
2018-08-24T05:01:17.566Z,23.59
2018-08-24T05:02:17.843Z,23.62
2018-08-24T05:03:18.064Z,23.62
2018-08-24T05:04:17.725Z,23.59
2018-08-24T05:05:17.798Z,23.6
2018-08-24T05:06:17.733Z,23.6
2018-08-24T05:07:17.762Z,23.61
2018-08-24T05:08:18.207Z,23.61
2018-08-24T05:09:17.707Z,23.62
2018-08-24T05:10:17.827Z,23.61
2018-08-24T05:11:17.617Z,23.62
2018-08-24T05:12:17.753Z,23.62
2018-08-24T05:13:17.713Z,23.64
2018-08-24T05:14:17.666Z,23.62
2018-08-24T05:15:17.696Z,23.64
2018-08-24T05:16:17.788Z,23.61
2018-08-24T05:17:17.774Z,23.62
2018-08-24T05:18:17.792Z,23.61
2018-08-24T05:19:17.786Z,23.64
2018-08-24T05:20:17.728Z,23.59
2018-08-24T05:21:18.076Z,23.6
2018-08-24T05:22:17.826Z,23.59
2018-08-24T05:23:17.647Z,23.59
2018-08-24T05:24:17.763Z,23.61
2018-08-24T05:25:17.762Z,23.59
2018-08-24T05:26:17.919Z,23.61
2018-08-24T05:27:17.739Z,23.62
2018-08-24T05:28:17.817Z,23.62
2018-08-24T05:29:17.589Z,23.59
2018-08-24T05:30:17.632Z,23.61
2018-08-24T05:31:17.784Z,23.59
2018-08-24T05:32:17.705Z,23.61
2018-08-24T05:33:17.711Z,23.62
2018-08-24T05:34:17.934Z,23.6
2018-08-24T05:35:17.535Z,23.6
2018-08-24T05:36:17.718Z,23.6
2018-08-24T05:37:17.933Z,23.59
2018-08-24T05:38:17.563Z,23.6
2018-08-24T05:39:17.646Z,23.64
2018-08-24T05:40:17.605Z,23.59
2018-08-24T05:41:17.968Z,23.59
2018-08-24T05:42:17.762Z,23.64
2018-08-24T05:43:17.676Z,23.64
2018-08-24T05:44:17.709Z,23.62
2018-08-24T05:45:17.620Z,23.59
2018-08-24T05:46:17.570Z,23.6
2018-08-24T05:47:17.751Z,23.59
2018-08-24T05:48:17.728Z,23.6
2018-08-24T05:49:17.741Z,23.6
2018-08-24T05:50:17.742Z,23.59
2018-08-24T05:51:17.708Z,23.58
2018-08-24T05:52:17.594Z,23.58
2018-08-24T05:53:17.763Z,23.62
2018-08-24T05:54:17.835Z,23.57
2018-08-24T05:55:17.865Z,23.59
2018-08-24T05:56:17.796Z,23.58
2018-08-24T05:57:17.763Z,23.6
2018-08-24T05:58:17.626Z,23.59
2018-08-24T05:59:17.767Z,23.6
2018-08-24T06:00:17.558Z,23.62
2018-08-24T06:01:17.822Z,23.61
2018-08-24T06:02:17.709Z,23.59
2018-08-24T06:03:17.643Z,23.62
2018-08-24T06:04:17.553Z,23.61
2018-08-24T06:05:17.710Z,23.62
2018-08-24T06:06:17.527Z,23.59
2018-08-24T06:07:17.939Z,23.61
2018-08-24T06:08:17.741Z,23.59
2018-08-24T06:09:17.779Z,23.62
2018-08-24T06:10:17.603Z,23.59
2018-08-24T06:11:17.838Z,23.6
2018-08-24T06:12:17.835Z,23.61
2018-08-24T06:13:17.911Z,23.6
2018-08-24T06:14:17.839Z,23.61
2018-08-24T06:15:18.460Z,23.59
2018-08-24T06:16:18.090Z,23.59
2018-08-24T06:17:17.807Z,23.6
2018-08-24T06:18:17.903Z,23.6
2018-08-24T06:19:17.759Z,23.59
2018-08-24T06:20:17.731Z,23.59
2018-08-24T06:21:17.760Z,23.59
2018-08-24T06:22:17.771Z,23.58
2018-08-24T06:23:17.702Z,23.6
2018-08-24T06:24:18.011Z,23.57
2018-08-24T06:25:17.763Z,23.6
2018-08-24T06:26:17.783Z,23.58
2018-08-24T06:27:17.792Z,23.61
2018-08-24T06:28:17.639Z,23.59
2018-08-24T06:29:18.199Z,23.59
2018-08-24T06:30:17.560Z,23.58
2018-08-24T06:31:17.773Z,23.58
2018-08-24T06:32:17.945Z,23.59
2018-08-24T06:33:17.715Z,23.59
2018-08-24T06:34:17.811Z,23.59
2018-08-24T06:35:17.901Z,23.58
2018-08-24T06:36:17.568Z,23.59
2018-08-24T06:37:17.720Z,23.59
2018-08-24T06:38:17.803Z,23.58
2018-08-24T06:39:17.703Z,23.61
2018-08-24T06:40:18.232Z,23.59
2018-08-24T06:41:17.522Z,23.59
2018-08-24T06:42:17.697Z,23.59
2018-08-24T06:43:18.310Z,23.59
2018-08-24T06:44:17.655Z,23.58
2018-08-24T06:45:17.825Z,23.59
2018-08-24T06:46:17.659Z,23.58
2018-08-24T06:47:17.991Z,23.59
2018-08-24T06:48:17.826Z,23.6
2018-08-24T06:49:17.690Z,23.58
2018-08-24T06:50:17.642Z,23.57
2018-08-24T06:51:17.906Z,23.58
2018-08-24T06:52:17.567Z,23.59
2018-08-24T06:53:18.910Z,23.58
2018-08-24T06:54:17.672Z,23.58
2018-08-24T06:55:17.582Z,23.58
2018-08-24T06:56:17.653Z,23.59
2018-08-24T06:57:17.570Z,23.59
2018-08-24T06:58:17.617Z,23.59
2018-08-24T06:59:17.969Z,23.59
2018-08-24T07:00:17.768Z,23.58
2018-08-24T07:01:17.978Z,23.58
2018-08-24T07:02:17.659Z,23.56
2018-08-24T07:03:17.511Z,23.59
2018-08-24T07:04:17.858Z,23.57
2018-08-24T07:05:17.714Z,23.59
2018-08-24T07:06:17.615Z,23.59
2018-08-24T07:07:17.558Z,23.56
2018-08-24T07:08:17.962Z,23.61
2018-08-24T07:09:18.031Z,23.59
2018-08-24T07:10:17.774Z,23.59
2018-08-24T07:11:17.874Z,23.61
2018-08-24T07:12:17.761Z,23.59
2018-08-24T07:13:17.978Z,23.61
2018-08-24T07:14:17.454Z,23.58
2018-08-24T07:15:17.805Z,23.59
2018-08-24T07:16:17.720Z,23.58
2018-08-24T07:17:17.817Z,23.58
2018-08-24T07:18:17.804Z,23.59
2018-08-24T07:19:17.780Z,23.59
2018-08-24T07:20:17.684Z,23.58
2018-08-24T07:21:17.730Z,23.56
2018-08-24T07:22:17.559Z,23.58
2018-08-24T07:23:17.804Z,23.57
2018-08-24T07:24:17.691Z,23.57
2018-08-24T07:25:18.222Z,23.59
2018-08-24T07:26:17.657Z,23.58
2018-08-24T07:27:17.761Z,23.56
2018-08-24T07:28:18.028Z,23.59
2018-08-24T07:29:17.942Z,23.57
2018-08-24T07:30:17.892Z,23.56
2018-08-24T07:31:17.999Z,23.59
2018-08-24T07:32:17.906Z,23.59
2018-08-24T07:33:17.748Z,23.57
2018-08-24T07:34:17.733Z,23.57
2018-08-24T07:35:17.892Z,23.59
2018-08-24T07:36:17.483Z,23.58
2018-08-24T07:37:17.757Z,23.58
2018-08-24T07:38:17.805Z,23.6
2018-08-24T07:39:17.797Z,23.64
2018-08-24T07:40:17.617Z,23.66
2018-08-24T07:41:18.344Z,23.68
2018-08-24T07:42:17.724Z,23.67
2018-08-24T07:43:17.768Z,23.65
2018-08-24T07:44:17.832Z,23.68
2018-08-24T07:45:17.694Z,23.68
2018-08-24T07:46:17.778Z,23.67
2018-08-24T07:47:17.482Z,23.68
2018-08-24T07:48:17.841Z,23.68
2018-08-24T07:49:17.705Z,23.68
2018-08-24T07:50:17.611Z,23.69
2018-08-24T07:51:18.014Z,23.7
2018-08-24T07:52:17.901Z,23.69
2018-08-24T07:53:17.724Z,23.7
2018-08-24T07:54:17.791Z,23.68
2018-08-24T07:55:17.698Z,23.68
2018-08-24T07:56:17.705Z,23.69
2018-08-24T07:57:17.793Z,23.67
2018-08-24T07:58:17.515Z,23.68
2018-08-24T07:59:17.478Z,23.67
2018-08-24T08:00:17.678Z,23.69
2018-08-24T08:01:17.762Z,23.68
2018-08-24T08:02:17.785Z,23.68
2018-08-24T08:03:17.545Z,23.69
2018-08-24T08:04:17.701Z,23.69
2018-08-24T08:05:18.090Z,23.68
2018-08-24T08:06:18.116Z,23.68
2018-08-24T08:07:17.664Z,23.68
2018-08-24T08:08:17.776Z,23.66
2018-08-24T08:09:17.479Z,23.67
2018-08-24T08:10:17.720Z,23.66
2018-08-24T08:11:17.682Z,23.66
2018-08-24T08:12:17.733Z,23.67
2018-08-24T08:13:17.678Z,23.66
2018-08-24T08:14:17.809Z,23.66
2018-08-24T08:15:17.602Z,23.64
2018-08-24T08:16:17.538Z,23.65
2018-08-24T08:17:17.667Z,23.65
2018-08-24T08:18:18.407Z,23.66
2018-08-24T08:19:17.599Z,23.65
2018-08-24T08:20:17.567Z,23.62
2018-08-24T08:21:17.587Z,23.66
2018-08-24T08:22:17.598Z,23.65
2018-08-24T08:23:17.763Z,23.66
2018-08-24T08:24:17.778Z,23.64
2018-08-24T08:25:17.526Z,23.64
2018-08-24T08:26:17.619Z,23.65
2018-08-24T08:27:17.735Z,23.66
2018-08-24T08:28:17.769Z,23.65
2018-08-24T08:29:17.615Z,23.65
2018-08-24T08:30:17.814Z,23.65
2018-08-24T08:31:17.781Z,23.65
2018-08-24T08:32:17.742Z,23.65
2018-08-24T08:33:17.771Z,23.66
2018-08-24T08:34:17.871Z,23.66
2018-08-24T08:35:17.873Z,23.65
2018-08-24T08:36:17.803Z,23.66
2018-08-24T08:37:17.747Z,23.68
2018-08-24T08:38:17.795Z,23.66
2018-08-24T08:39:17.758Z,23.66
2018-08-24T08:40:17.829Z,23.66
2018-08-24T08:41:17.581Z,23.67
2018-08-24T08:42:17.542Z,23.67
2018-08-24T08:43:18.169Z,23.66
2018-08-24T08:44:17.620Z,23.65
2018-08-24T08:45:17.977Z,23.65
2018-08-24T08:46:17.581Z,23.66
2018-08-24T08:47:17.569Z,23.67
2018-08-24T08:48:18.119Z,23.65
2018-08-24T08:49:17.850Z,23.65
2018-08-24T08:50:17.796Z,23.65
2018-08-24T08:51:17.761Z,23.66
2018-08-24T08:52:17.723Z,23.66
2018-08-24T08:53:17.622Z,23.65
2018-08-24T08:54:17.776Z,23.65
2018-08-24T08:55:17.930Z,23.67
2018-08-24T08:56:17.495Z,23.68
2018-08-24T08:57:17.740Z,23.67
2018-08-24T08:58:17.746Z,23.66
2018-08-24T08:59:17.878Z,23.67
2018-08-24T09:00:17.501Z,23.66
2018-08-24T09:01:17.685Z,23.66
2018-08-24T09:02:17.756Z,23.66
2018-08-24T09:03:17.877Z,23.68
2018-08-24T09:04:17.577Z,23.67
2018-08-24T09:05:17.765Z,23.66
2018-08-24T09:06:18.030Z,23.68
2018-08-24T09:07:17.770Z,23.67
2018-08-24T09:08:17.536Z,23.65
2018-08-24T09:09:17.733Z,23.67
2018-08-24T09:10:17.697Z,23.67
2018-08-24T09:11:17.712Z,23.68
2018-08-24T09:12:17.789Z,23.69
2018-08-24T09:13:17.776Z,23.68
2018-08-24T09:14:18.070Z,23.68
2018-08-24T09:15:17.535Z,23.66
2018-08-24T09:16:17.716Z,23.67
2018-08-24T09:17:17.792Z,23.65
2018-08-24T09:18:17.906Z,23.66
2018-08-24T09:19:17.787Z,23.65
2018-08-24T09:20:17.748Z,23.66
2018-08-24T09:21:17.613Z,23.67
2018-08-24T09:22:17.835Z,23.67
2018-08-24T09:23:18.089Z,23.68
2018-08-24T09:24:17.806Z,23.67
2018-08-24T09:25:17.847Z,23.67
2018-08-24T09:26:17.546Z,23.68
2018-08-24T09:27:17.591Z,23.68
2018-08-24T09:28:17.619Z,23.66
2018-08-24T09:29:17.512Z,23.66
2018-08-24T09:30:17.709Z,23.66
2018-08-24T09:31:17.643Z,23.68
2018-08-24T09:32:17.806Z,23.67
2018-08-24T09:33:17.700Z,23.66
2018-08-24T09:34:17.632Z,23.67
2018-08-24T09:35:17.593Z,23.68
2018-08-24T09:36:17.723Z,23.67
2018-08-24T09:37:17.456Z,23.68
2018-08-24T09:38:17.574Z,23.66
2018-08-24T09:39:17.668Z,23.7
2018-08-24T09:40:17.743Z,23.66
2018-08-24T09:41:17.623Z,23.66
2018-08-24T09:42:17.694Z,23.68
2018-08-24T09:43:17.706Z,23.67
2018-08-24T09:44:17.702Z,23.67
2018-08-24T09:45:17.604Z,23.66
2018-08-24T09:46:17.697Z,23.67
2018-08-24T09:47:17.585Z,23.67
2018-08-24T09:48:17.598Z,23.67
2018-08-24T09:49:17.752Z,23.66
2018-08-24T09:50:17.945Z,23.66
2018-08-24T09:51:17.885Z,23.67
2018-08-24T09:52:18.112Z,23.66
2018-08-24T09:53:17.877Z,23.67
2018-08-24T09:54:17.688Z,23.68
2018-08-24T09:55:17.861Z,23.66
2018-08-24T09:56:17.895Z,23.67
2018-08-24T09:57:17.516Z,23.67
2018-08-24T09:58:17.578Z,23.66
2018-08-24T09:59:17.735Z,23.68
2018-08-24T10:00:17.894Z,23.69
2018-08-24T10:01:17.782Z,23.67
2018-08-24T10:02:17.556Z,23.67
2018-08-24T10:03:17.711Z,23.67
2018-08-24T10:04:17.871Z,23.67
2018-08-24T10:05:18.163Z,23.67
2018-08-24T10:06:18.181Z,23.68
2018-08-24T10:07:17.893Z,23.67
2018-08-24T10:08:17.996Z,23.66
2018-08-24T10:09:17.866Z,23.66
2018-08-24T10:10:17.489Z,23.68
2018-08-24T10:11:17.620Z,23.68
2018-08-24T10:12:17.919Z,23.66
2018-08-24T10:13:18.250Z,23.66
2018-08-24T10:14:17.771Z,23.66
2018-08-24T10:15:17.546Z,23.66
2018-08-24T10:16:17.654Z,23.66
2018-08-24T10:17:17.706Z,23.65
2018-08-24T10:18:17.950Z,23.62
2018-08-24T10:19:17.895Z,23.64
2018-08-24T10:20:17.838Z,23.65
2018-08-24T10:21:17.491Z,23.67
2018-08-24T10:22:17.616Z,23.64
2018-08-24T10:23:17.931Z,23.66
2018-08-24T10:24:17.745Z,23.68
2018-08-24T10:25:17.924Z,23.66
2018-08-24T10:26:17.826Z,23.59
2018-08-24T10:27:17.572Z,23.44
2018-08-24T10:28:17.804Z,23.31
2018-08-24T10:29:18.243Z,23.24
2018-08-24T10:30:17.918Z,23.23
2018-08-24T10:31:17.796Z,23.12
2018-08-24T10:32:17.622Z,23.05
2018-08-24T10:33:17.726Z,23.06
2018-08-24T10:34:17.741Z,22.97
2018-08-24T10:35:17.753Z,22.87
2018-08-24T10:36:17.797Z,22.79
2018-08-24T10:37:17.770Z,22.73
2018-08-24T10:38:17.623Z,22.66
2018-08-24T10:39:17.783Z,22.62
2018-08-24T10:40:17.858Z,22.58
2018-08-24T10:41:17.829Z,22.56
2018-08-24T10:42:17.848Z,22.44
2018-08-24T10:43:17.483Z,22.5
2018-08-24T10:44:17.744Z,22.48
2018-08-24T10:45:17.701Z,22.4
2018-08-24T10:46:18.310Z,22.35
2018-08-24T10:47:18.331Z,22.28
2018-08-24T10:48:17.559Z,22.28
2018-08-24T10:49:18.441Z,22.26
2018-08-24T10:50:17.733Z,22.28
2018-08-24T10:51:17.844Z,22.28
2018-08-24T10:52:17.617Z,22.14
2018-08-24T10:53:17.799Z,22.21
2018-08-24T10:54:17.597Z,22.23
2018-08-24T10:55:17.587Z,22.27
2018-08-24T10:56:18.332Z,22.31
2018-08-24T10:57:17.752Z,22.33
2018-08-24T10:58:17.610Z,22.35
2018-08-24T10:59:17.830Z,22.4
2018-08-24T11:00:17.704Z,22.42
2018-08-24T11:01:17.571Z,22.47
2018-08-24T11:02:17.650Z,22.5
2018-08-24T11:03:17.737Z,22.53
2018-08-24T11:04:17.520Z,22.55
2018-08-24T11:05:17.701Z,22.6
2018-08-24T11:06:17.643Z,22.62
2018-08-24T11:07:18.151Z,22.63
2018-08-24T11:08:17.699Z,22.65
2018-08-24T11:09:17.585Z,22.67
2018-08-24T11:10:17.718Z,22.7
2018-08-24T11:11:17.878Z,22.73
2018-08-24T11:12:17.838Z,22.73
2018-08-24T11:13:17.684Z,22.79
2018-08-24T11:14:17.659Z,22.78
2018-08-24T11:15:17.696Z,22.81
2018-08-24T11:16:17.696Z,22.82
2018-08-24T11:17:17.718Z,22.84
2018-08-24T11:18:17.733Z,22.85
2018-08-24T11:19:17.802Z,22.86
2018-08-24T11:20:17.531Z,22.87
2018-08-24T11:21:17.771Z,22.91
2018-08-24T11:22:17.969Z,22.91
2018-08-24T11:23:17.786Z,22.92
2018-08-24T11:24:17.754Z,22.92
2018-08-24T11:25:17.999Z,22.95
2018-08-24T11:26:18.455Z,22.95
2018-08-24T11:27:17.543Z,22.95
2018-08-24T11:28:17.732Z,22.96
2018-08-24T11:29:18.451Z,23
2018-08-24T11:30:17.504Z,22.99
2018-08-24T11:31:17.705Z,23
2018-08-24T11:32:17.761Z,23
2018-08-24T11:33:17.768Z,23.02
2018-08-24T11:34:17.901Z,23
2018-08-24T11:35:17.743Z,23
2018-08-24T11:36:18.377Z,23.03
2018-08-24T11:37:17.728Z,23.05
2018-08-24T11:38:17.546Z,23.03
2018-08-24T11:39:17.966Z,23.02
2018-08-24T11:40:17.406Z,23.05
2018-08-24T11:41:17.516Z,23.07
2018-08-24T11:42:18.461Z,23.06
2018-08-24T11:43:17.623Z,23.05
2018-08-24T11:44:17.520Z,23.06
2018-08-24T11:45:17.717Z,23.06
2018-08-24T11:46:17.651Z,23.08
2018-08-24T11:47:17.825Z,23.07
2018-08-24T11:48:17.521Z,23.1
2018-08-24T11:49:17.623Z,23.09
2018-08-24T11:50:17.783Z,23.08
2018-08-24T11:51:17.507Z,23.08
2018-08-24T11:52:17.781Z,23.07
2018-08-24T11:53:17.555Z,23.07
2018-08-24T11:54:17.757Z,23.1
2018-08-24T11:55:17.978Z,23.08
2018-08-24T11:56:18.034Z,23.08
2018-08-24T11:57:17.881Z,23.1
2018-08-24T11:58:17.568Z,23.09
2018-08-24T11:59:17.897Z,23.07
2018-08-24T12:00:17.850Z,23.11
2018-08-24T12:01:17.816Z,23.09
2018-08-24T12:02:17.485Z,23.1
2018-08-24T12:03:17.849Z,23.11
2018-08-24T12:04:17.683Z,23.1
2018-08-24T12:05:17.888Z,23.11
2018-08-24T12:06:17.612Z,23.11
2018-08-24T12:07:17.813Z,23.11
2018-08-24T12:08:18.405Z,23.12
2018-08-24T12:09:17.538Z,23.12
2018-08-24T12:10:17.761Z,23.11
2018-08-24T12:11:17.776Z,23.13
2018-08-24T12:12:18.486Z,23.12
2018-08-24T12:13:17.536Z,23.11
2018-08-24T12:14:18.241Z,23.13
2018-08-24T12:15:17.709Z,23.11
2018-08-24T12:16:17.683Z,23.1
2018-08-24T12:17:17.675Z,23.13
2018-08-24T12:18:18.263Z,23.14
2018-08-24T12:19:17.529Z,23.13
2018-08-24T12:20:17.792Z,23.14
2018-08-24T12:21:18.405Z,23.13
2018-08-24T12:22:17.575Z,23.1
2018-08-24T12:23:17.657Z,23.12
2018-08-24T12:24:17.826Z,23.12
2018-08-24T12:25:17.461Z,23.13
2018-08-24T12:26:17.807Z,23.13
2018-08-24T12:27:17.999Z,23.12
2018-08-24T12:28:17.727Z,23.13
2018-08-24T12:29:17.632Z,23.13
2018-08-24T12:30:17.740Z,23.13
2018-08-24T12:31:18.056Z,23.13
2018-08-24T12:32:17.492Z,23.14
2018-08-24T12:33:17.774Z,23.14
2018-08-24T12:34:17.534Z,23.14
2018-08-24T12:35:17.428Z,23.15
2018-08-24T12:36:17.905Z,23.13
2018-08-24T12:37:17.754Z,23.14
2018-08-24T12:38:18.167Z,23.15
2018-08-24T12:39:17.830Z,23.16
2018-08-24T12:40:17.823Z,23.13
2018-08-24T12:41:18.256Z,23.15
2018-08-24T12:42:17.892Z,23.16
2018-08-24T12:43:17.801Z,23.14
2018-08-24T12:44:17.726Z,23.16
2018-08-24T12:45:17.506Z,23.14
2018-08-24T12:46:17.549Z,23.16
2018-08-24T12:47:17.626Z,23.17
2018-08-24T12:48:17.939Z,23.15
2018-08-24T12:49:18.290Z,23.17
2018-08-24T12:50:17.601Z,23.16
2018-08-24T12:51:17.547Z,23.18
2018-08-24T12:52:17.540Z,23.18
2018-08-24T12:53:17.716Z,23.16
2018-08-24T12:54:17.610Z,23.2
2018-08-24T12:55:17.713Z,23.18